createdAt,value
2023-01-13T00:05:38.617Z,63.91
2023-01-13T00:11:55.835Z,63.94
2023-01-13T00:18:24.777Z,63.88
2023-01-13T00:24:39.561Z,63.97
2023-01-13T00:30:59.552Z,63.87
2023-01-13T00:37:04.228Z,64.32
2023-01-13T00:43:22.385Z,64.41
2023-01-13T00:49:49.682Z,64.74
2023-01-13T00:56:24.425Z,64.97
2023-01-13T01:02:55.698Z,65.07
2023-01-13T01:10:03.910Z,65.29
2023-01-13T01:16:40.951Z,65.22
2023-01-13T01:28:59.905Z,65.39
2023-01-13T01:35:07.548Z,65.92
2023-01-13T01:41:36.966Z,65.53
2023-01-13T01:48:29.066Z,65.43
2023-01-13T02:01:28.465Z,65.83
2023-01-13T02:15:13.053Z,66.11
2023-01-13T02:43:25.258Z,66.97
2023-01-13T02:55:48.389Z,66.97
2023-01-13T03:07:56.752Z,66.73
2023-01-13T03:21:39.762Z,66.90
2023-01-13T03:28:28.956Z,67.28
2023-01-13T03:35:33.936Z,67.30
2023-01-13T03:56:41.221Z,68.59
2023-01-13T04:03:31.663Z,68.16
2023-01-13T04:09:28.005Z,67.97
2023-01-13T04:37:07.933Z,66.15
2023-01-13T04:44:02.789Z,65.40
2023-01-13T04:56:20.690Z,64.67
2023-01-13T05:02:23.106Z,64.69
2023-01-13T05:15:51.002Z,64.05
2023-01-13T05:26:19.621Z,63.45
2023-01-13T05:36:55.937Z,63.20
2023-01-13T06:06:37.841Z,62.56
2023-01-13T06:39:15.148Z,61.49
2023-01-13T06:41:44.831Z,61.67
2023-01-13T06:48:03.778Z,61.41
2023-01-13T07:22:34.231Z,61.21
2023-01-13T07:52:09.409Z,60.93
2023-01-13T07:57:13.987Z,60.71
2023-01-13T08:24:59.221Z,60.32
2023-01-13T08:30:56.796Z,59.83
2023-01-13T08:36:13.039Z,59.12
2023-01-13T08:41:40.231Z,59.01
2023-01-13T08:48:04.484Z,58.54
2023-01-13T08:53:38.632Z,58.53
2023-01-13T08:59:32.523Z,58.38
2023-01-13T09:05:09.593Z,57.97
2023-01-13T09:10:56.511Z,57.86
2023-01-13T09:16:42.384Z,57.18
2023-01-13T09:23:09.868Z,56.91
2023-01-13T09:29:08.393Z,56.29
2023-01-13T09:35:18.114Z,55.97
2023-01-13T09:40:58.587Z,55.16
2023-01-13T09:47:05.139Z,54.61
2023-01-13T09:52:58.122Z,54.32
2023-01-13T09:59:23.535Z,54.23
2023-01-13T10:04:50.953Z,53.72
2023-01-13T10:10:32.320Z,53.19
2023-01-13T10:17:12.405Z,52.98
2023-01-13T10:23:44.279Z,53.01
2023-01-13T10:30:24.756Z,52.37
2023-01-13T10:37:08.663Z,52.23
2023-01-13T10:42:49.531Z,51.84
2023-01-13T10:49:20.879Z,51.86
2023-01-13T10:55:07.698Z,51.44
2023-01-13T11:00:48.140Z,51.25
2023-01-13T11:07:28.299Z,50.92
2023-01-13T11:12:58.604Z,51.11
2023-01-13T11:19:31.655Z,51.10
2023-01-13T11:25:38.859Z,50.76
2023-01-13T11:39:39.632Z,50.49
2023-01-13T11:46:10.539Z,50.22
2023-01-13T13:06:34.761Z,49.37
2023-01-13T13:12:44.674Z,49.24
2023-01-13T13:18:46.160Z,49.23
2023-01-13T13:24:56.849Z,49.55
2023-01-13T13:30:57.688Z,49.54
2023-01-13T13:36:48.436Z,49.90
2023-01-13T13:43:14.813Z,49.84
2023-01-13T13:48:55.512Z,49.89
2023-01-13T13:55:02.559Z,49.84
2023-01-13T14:01:17.202Z,49.82
2023-01-13T14:13:57.418Z,49.71
2023-01-13T14:20:09.467Z,50.17
2023-01-13T14:26:35.667Z,50.17
2023-01-13T14:32:05.392Z,50.03
2023-01-13T14:38:33.592Z,49.75
2023-01-13T14:44:04.142Z,50.01
2023-01-13T14:55:16.161Z,49.73
2023-01-13T15:01:19.693Z,50.09
2023-01-13T15:07:49.484Z,49.96
2023-01-13T15:12:58.086Z,50.65
2023-01-13T15:19:04.033Z,50.61
2023-01-13T15:25:21.409Z,50.61
2023-01-13T15:31:47.971Z,50.62
2023-01-13T15:37:26.218Z,50.85
2023-01-13T15:43:33.307Z,50.86
2023-01-13T15:49:22.112Z,50.89
2023-01-13T16:02:12.029Z,50.73
2023-01-13T16:09:05.364Z,50.63
2023-01-13T16:15:28.050Z,50.84
2023-01-13T16:29:32.351Z,51.00
2023-01-13T16:42:24.148Z,50.75
2023-01-13T16:56:31.455Z,50.68
2023-01-13T17:03:04.305Z,50.46
2023-01-13T17:16:27.077Z,51.27
2023-01-13T17:34:57.452Z,51.83
2023-01-13T17:40:31.044Z,52.13
2023-01-13T17:45:46.916Z,52.32
2023-01-13T17:55:40.269Z,52.82
2023-01-13T18:00:57.108Z,52.61
2023-01-13T18:06:18.178Z,52.71
2023-01-13T18:12:14.971Z,53.14
2023-01-13T18:17:19.196Z,52.90
2023-01-13T18:22:52.593Z,53.03
2023-01-13T18:29:16.585Z,53.22
2023-01-13T18:35:04.707Z,53.50
2023-01-13T18:41:45.752Z,53.80
2023-01-13T18:47:20.446Z,53.57
2023-01-13T19:56:17.663Z,56.24
2023-01-13T20:03:44.400Z,57.28
2023-01-13T20:08:33.923Z,58.60
2023-01-13T20:14:04.852Z,59.88
2023-01-13T20:19:14.496Z,61.07
2023-01-13T20:25:20.409Z,61.97
2023-01-13T20:31:21.133Z,63.07
2023-01-13T20:37:03.016Z,63.38
2023-01-13T20:42:29.703Z,64.41
2023-01-13T20:49:30.637Z,64.40
2023-01-13T20:54:58.596Z,64.84
2023-01-13T21:01:11.892Z,64.94
2023-01-13T21:07:10.087Z,65.32
2023-01-13T21:14:14.031Z,65.45
2023-01-13T21:19:21.703Z,65.77
2023-01-13T21:25:53.674Z,65.94
2023-01-13T21:32:30.720Z,66.19
2023-01-13T21:38:08.126Z,66.32
2023-01-13T21:44:24.975Z,66.76
2023-01-13T21:50:45.059Z,66.67
2023-01-13T21:56:27.692Z,66.66
2023-01-13T22:03:32.614Z,66.90
2023-01-13T22:09:48.119Z,67.01
2023-01-13T22:14:57.184Z,67.34
2023-01-13T22:33:28.445Z,66.64
2023-01-13T22:40:09.444Z,66.55
2023-01-13T22:52:30.754Z,65.36
2023-01-13T22:58:52.128Z,64.80
2023-01-13T23:05:10.512Z,64.68
2023-01-13T23:10:41.856Z,64.58
2023-01-13T23:16:56.152Z,64.43
2023-01-13T23:23:19.954Z,64.59
2023-01-13T23:31:22.509Z,64.67
2023-01-13T23:38:27.087Z,64.84
2023-01-13T23:43:20.423Z,64.89
2023-01-13T23:55:18.105Z,64.58
